»·PEaware :: N86LW M94-S36

N86LW :: M94-S36

FLIGHT INFORMATION

Flight Status: Arrived
Operator: Privately registered:
United States
More flights under this callsign
Pilot: Anonymous 30613 (30613)
Aircraft: PIPER PA-28R-201 ARROW
(P28R)
More flights by this aircraft type
Origin: M94 Desert Aire
United States
Destination: S36 Norman Grier Field
United States
More flights between these airports :: More routes between these airports
Route:
File this flight plan on PilotEdge
Remarks:
Altitude:
(Current/Filed)
6,500ft
Speed:
(Current/Filed)
130kts
Departed: 13-Sep-20 08:34 AM
Arrived: 13-Sep-20 09:39 AM
Distance/Time
Traveled:
98nm/1:05
Distance/Time
To Go:
Arrived

Flight Plot

Page will automatically refresh every two minutes.

Flight plan parsing failed; only flown route is shown


Map Options




Map Legend


Flown Route
Filed Route
Departure Airport
Arrival Airport
Navaid (VOR, NDB)
Fix

Horizontal Profiles

Position Reports

Time Latitude Longitude Heading Altitude Ground
Speed
13-Sep-20 08:29 46.684593 -119.913571 29 589ft 5kts
13-Sep-20 08:30 46.684632 -119.913539 30 589ft 0kts
13-Sep-20 08:31 46.684632 -119.913539 30 589ft 0kts
13-Sep-20 08:32 46.684632 -119.913539 30 589ft 0kts
13-Sep-20 08:33 46.689717 -119.926912 295 720ft 85kts
13-Sep-20 08:34 46.708371 -119.940501 2 1528ft 87kts
13-Sep-20 08:35 46.731975 -119.935489 14 2177ft 86kts
13-Sep-20 08:36 46.755589 -119.927728 10 2778ft 87kts
13-Sep-20 08:37 46.779395 -119.923892 10 3360ft 87kts
13-Sep-20 08:38 46.803697 -119.917053 10 3965ft 90kts
13-Sep-20 08:39 46.829380 -119.914942 351 4571ft 97kts
13-Sep-20 08:40 46.856950 -119.922274 336 5177ft 103kts
13-Sep-20 08:41 46.882652 -119.941070 332 5778ft 103kts
13-Sep-20 08:42 46.907989 -119.960139 332 6371ft 102kts
13-Sep-20 08:43 46.926667 -119.997078 290 6502ft 132kts
13-Sep-20 08:44 46.938285 -120.049600 287 6500ft 134kts
13-Sep-20 08:45 46.949214 -120.101122 287 6500ft 131kts
13-Sep-20 08:46 46.960038 -120.152098 287 6500ft 131kts
13-Sep-20 08:47 46.970843 -120.203092 287 6500ft 131kts
13-Sep-20 08:48 46.981603 -120.253993 287 6500ft 131kts
13-Sep-20 08:49 46.992339 -120.304908 287 6500ft 131kts
13-Sep-20 08:50 47.002919 -120.355200 287 6498ft 122kts
13-Sep-20 08:51 47.009264 -120.394059 284 5865ft 92kts
13-Sep-20 08:52 47.018286 -120.428082 289 4970ft 89kts
13-Sep-20 08:53 47.024581 -120.463456 282 3967ft 91kts
13-Sep-20 08:54 47.031427 -120.501131 283 2479ft 97kts
13-Sep-20 08:55 47.031721 -120.527718 267 1745ft 0kts
13-Sep-20 08:56 47.031721 -120.527718 267 1745ft 0kts
13-Sep-20 08:57 47.031721 -120.527718 267 1745ft 0kts
13-Sep-20 08:58 47.031721 -120.527718 267 1745ft 0kts
13-Sep-20 08:59 47.031721 -120.527719 267 1745ft 0kts
13-Sep-20 09:00 47.033873 -120.551914 288 1958ft 73kts
13-Sep-20 09:01 47.042393 -120.578780 298 2349ft 68kts
13-Sep-20 09:02 47.051399 -120.604325 297 2697ft 81kts
13-Sep-20 09:03 47.062710 -120.637270 297 3244ft 97kts
13-Sep-20 09:04 47.075755 -120.674122 297 3853ft 105kts
13-Sep-20 09:05 47.089316 -120.712535 297 4455ft 106kts
13-Sep-20 09:06 47.102925 -120.751233 297 5056ft 106kts
13-Sep-20 09:07 47.107062 -120.763014 297 5239ft 106kts
13-Sep-20 09:08 47.110362 -120.772414 297 5386ft 104kts
13-Sep-20 09:09 47.118201 -120.794777 297 5739ft 104kts
13-Sep-20 09:10 47.131269 -120.832095 297 6337ft 101kts
13-Sep-20 09:11 47.145207 -120.871879 297 6646ft 117kts
13-Sep-20 09:12 47.159805 -120.913772 297 6967ft 117kts
13-Sep-20 09:13 47.171432 -120.962724 283 6663ft 150kts
13-Sep-20 09:14 47.186338 -121.017053 295 6554ft 137kts
13-Sep-20 09:15 47.202370 -121.067136 295 6555ft 133kts
13-Sep-20 09:16 47.219362 -121.115552 306 6555ft 133kts
13-Sep-20 09:18 47.241468 -121.159295 306 6555ft 133kts
13-Sep-20 09:19 47.255781 -121.207635 278 6555ft 133kts
13-Sep-20 09:20 47.261476 -121.261436 278 6555ft 133kts
13-Sep-20 09:21 47.266707 -121.315407 278 6555ft 133kts
13-Sep-20 09:22 47.271698 -121.369431 277 6555ft 133kts
13-Sep-20 09:23 47.276589 -121.423344 278 6555ft 133kts
13-Sep-20 09:24 47.281557 -121.477350 278 6555ft 133kts
13-Sep-20 09:25 47.286508 -121.531408 278 6555ft 133kts
13-Sep-20 09:26 47.291428 -121.585416 278 6555ft 133kts
13-Sep-20 09:27 47.296323 -121.639443 278 6555ft 133kts
13-Sep-20 09:28 47.301196 -121.693516 277 6555ft 133kts
13-Sep-20 09:29 47.306129 -121.748484 277 6397ft 142kts
13-Sep-20 09:30 47.311481 -121.808143 277 5949ft 148kts
13-Sep-20 09:31 47.317681 -121.868378 289 5498ft 148kts
13-Sep-20 09:32 47.323390 -121.928314 275 5013ft 145kts
13-Sep-20 09:33 47.327308 -121.981257 276 3950ft 121kts
13-Sep-20 09:34 47.331184 -122.029784 276 2898ft 118kts
13-Sep-20 09:34 47.334352 -122.069230 276 2019ft 111kts
13-Sep-20 09:36 47.356266 -122.093481 355 1284ft 88kts
13-Sep-20 09:37 47.364921 -122.113340 212 945ft 76kts
13-Sep-20 09:37 47.347985 -122.107133 164 723ft 74kts
13-Sep-20 09:39 47.333222 -122.102359 3 474ft 10kts
13-Sep-20 09:39 47.336899 -122.103224 350 474ft 22kts
13-Sep-20 09:40 47.340203 -122.103749 175 474ft 0kts
13-Sep-20 09:41 47.340203 -122.103749 175 474ft 0kts
13-Sep-20 09:42 47.340203 -122.103749 175 474ft 0kts

Navigation Log

Ident Type
Flight plan parsing failed, navigation log unavailable